Time;durP1;ratioP1;P1;durP2;ratioP2;P2;SDS_P1;SDS_P2;PMS_P1;PMS_P2;Temp;Humidity;BMP_temperature;BMP_pressure;BME280_temperature;BME280_humidity;BME280_pressure;Samples;Min_cycle;Max_cycle;Signal;HPM_P1;HPM_P2
2021/01/26 00:00:50;;;;;;;32.63;15.17;;;3.30;93.00;;;;;;5091075;28;20024;-85
2021/01/26 00:03:15;;;;;;;32.80;14.40;;;3.20;93.10;;;;;;5091715;28;20085;-85
2021/01/26 00:05:42;;;;;;;30.93;15.27;;;3.20;93.30;;;;;;5091623;28;20028;-86
2021/01/26 00:08:08;;;;;;;28.07;14.77;;;3.20;93.50;;;;;;5092903;28;20028;-86
2021/01/26 00:10:34;;;;;;;30.83;13.73;;;3.10;93.60;;;;;;5090755;28;20028;-86
2021/01/26 00:13:00;;;;;;;28.97;14.63;;;3.10;93.80;;;;;;5091368;28;20382;-86
2021/01/26 00:15:26;;;;;;;28.87;15.57;;;3.10;94.00;;;;;;5091923;28;20448;-86
2021/01/26 00:17:51;;;;;;;32.03;15.10;;;3.10;94.30;;;;;;5091420;28;20024;-86
2021/01/26 00:20:17;;;;;;;32.90;15.87;;;3.10;94.30;;;;;;5090855;28;20024;-86
2021/01/26 00:22:44;;;;;;;28.13;14.80;;;3.10;94.40;;;;;;5091388;28;20028;-86
2021/01/26 00:25:12;;;;;;;29.60;13.97;;;3.10;94.40;;;;;;5091258;28;20123;-86
2021/01/26 00:27:38;;;;;;;29.23;13.77;;;3.10;94.40;;;;;;5090958;28;20035;-86
2021/01/26 00:30:10;;;;;;;25.97;14.13;;;3.00;94.30;;;;;;5090715;28;20032;-86
2021/01/26 00:32:36;;;;;;;27.57;13.60;;;3.10;94.40;;;;;;5090629;28;20081;-86
2021/01/26 00:35:02;;;;;;;26.07;13.97;;;3.00;94.40;;;;;;5091155;28;20435;-86
2021/01/26 00:37:27;;;;;;;28.17;13.90;;;3.10;94.90;;;;;;5091180;28;20056;-85
2021/01/26 00:39:53;;;;;;;30.83;13.83;;;3.10;94.60;;;;;;5090375;28;20020;-86
2021/01/26 00:42:19;;;;;;;25.57;13.23;;;3.10;94.30;;;;;;5091103;28;20504;-86
2021/01/26 00:44:44;;;;;;;28.00;12.87;;;3.10;94.30;;;;;;5091031;28;20085;-86
2021/01/26 00:47:10;;;;;;;29.20;12.17;;;3.10;94.70;;;;;;5091082;28;20059;-86
2021/01/26 00:49:35;;;;;;;24.23;11.87;;;3.10;94.60;;;;;;5091718;28;20031;-86
2021/01/26 00:52:01;;;;;;;25.70;13.47;;;3.10;94.40;;;;;;5090962;28;20024;-86
2021/01/26 00:54:27;;;;;;;22.80;12.13;;;3.00;94.40;;;;;;5092044;28;20024;-86
2021/01/26 00:56:52;;;;;;;25.53;12.87;;;2.90;94.60;;;;;;5091160;28;20025;-86
2021/01/26 00:59:18;;;;;;;26.00;12.47;;;2.90;94.70;;;;;;5091740;28;20016;-86
2021/01/26 01:01:43;;;;;;;31.27;13.07;;;2.90;94.70;;;;;;5092356;28;20487;-86
2021/01/26 01:04:09;;;;;;;24.23;12.60;;;2.90;94.70;;;;;;5091014;28;20024;-86
2021/01/26 01:06:35;;;;;;;28.10;12.80;;;3.00;94.80;;;;;;5090880;28;20499;-86
2021/01/26 01:09:00;;;;;;;27.17;12.97;;;3.00;94.70;;;;;;5090416;28;20028;-86
2021/01/26 01:11:28;;;;;;;30.33;12.77;;;3.00;94.90;;;;;;5090868;28;20480;-86
2021/01/26 01:13:54;;;;;;;28.90;13.00;;;3.00;94.90;;;;;;5090740;28;20527;-86
2021/01/26 01:16:19;;;;;;;24.07;12.80;;;3.00;94.80;;;;;;5090981;28;20043;-86
2021/01/26 01:18:45;;;;;;;22.80;12.33;;;3.00;94.90;;;;;;5090888;28;20025;-86
2021/01/26 01:21:10;;;;;;;26.50;12.60;;;3.10;94.80;;;;;;5091010;28;20020;-86
2021/01/26 01:23:36;;;;;;;21.37;11.30;;;3.00;94.80;;;;;;5092293;28;20019;-86
2021/01/26 01:26:02;;;;;;;27.87;12.97;;;3.00;94.80;;;;;;5092108;28;20024;-86
2021/01/26 01:28:28;;;;;;;30.00;13.53;;;3.00;94.90;;;;;;5090871;28;20048;-86
2021/01/26 01:30:57;;;;;;;26.80;12.87;;;3.00;94.90;;;;;;5090952;28;20031;-86
2021/01/26 01:33:25;;;;;;;21.60;10.88;;;3.10;95.00;;;;;;5090681;28;20032;-86
2021/01/26 01:35:51;;;;;;;25.00;12.98;;;3.10;95.10;;;;;;5090517;28;20438;-86
2021/01/26 01:38:18;;;;;;;28.77;12.40;;;3.10;94.90;;;;;;5090375;28;20021;-87
2021/01/26 01:40:43;;;;;;;23.50;12.27;;;3.10;94.90;;;;;;5091428;28;20016;-85
2021/01/26 01:43:09;;;;;;;26.07;12.67;;;3.10;95.00;;;;;;5094127;28;20024;-86
2021/01/26 01:45:38;;;;;;;24.43;12.07;;;3.00;95.00;;;;;;5094226;28;20020;-86
2021/01/26 01:48:23;;;;;;;27.00;12.20;;;3.10;95.10;;;;;;5094148;28;20016;-86
2021/01/26 01:51:01;;;;;;;23.03;11.80;;;3.10;95.00;;;;;;5094692;28;20048;-86
2021/01/26 01:53:39;;;;;;;26.40;11.80;;;3.00;95.20;;;;;;5093818;28;20395;-86
2021/01/26 01:56:18;;;;;;;28.27;11.97;;;3.10;95.20;;;;;;5094004;28;20024;-86
2021/01/26 01:58:48;;;;;;;24.27;12.35;;;3.10;95.20;;;;;;5095126;28;20061;-86
2021/01/26 02:01:16;;;;;;;21.63;10.07;;;3.10;95.20;;;;;;5094712;28;20035;-86
2021/01/26 02:03:56;;;;;;;29.50;11.13;;;3.10;95.00;;;;;;5093911;28;20031;-86
2021/01/26 02:06:24;;;;;;;;;;;3.10;95.10;;;;;;5094358;28;20131;-86
2021/01/26 02:09:06;;;;;;;21.77;10.20;;;3.10;95.00;;;;;;5093407;28;19904;-85
2021/01/26 02:11:32;;;;;;;17.77;9.43;;;3.10;95.00;;;;;;5094864;28;20107;-86
2021/01/26 02:13:59;;;;;;;18.00;9.83;;;3.10;95.00;;;;;;5093537;28;20115;-87
2021/01/26 02:16:44;;;;;;;19.40;9.57;;;3.10;95.10;;;;;;5093647;28;20378;-86
2021/01/26 02:19:38;;;;;;;18.83;10.07;;;3.10;95.10;;;;;;5092282;28;20078;-86
2021/01/26 02:22:25;;;;;;;21.97;9.33;;;3.20;95.00;;;;;;5093512;28;20422;-87
2021/01/26 02:25:09;;;;;;;19.40;9.20;;;3.20;94.90;;;;;;5094801;28;20396;-86
2021/01/26 02:27:53;;;;;;;24.00;9.90;;;3.20;95.00;;;;;;5093526;28;20053;-86
2021/01/26 02:30:25;;;;;;;23.23;9.20;;;3.20;95.00;;;;;;5092793;28;20031;-86
2021/01/26 02:33:18;;;;;;;23.70;9.60;;;3.20;95.00;;;;;;5093440;28;20109;-86
2021/01/26 02:35:53;;;;;;;22.13;8.93;;;3.20;94.90;;;;;;5093188;28;20222;-86
2021/01/26 02:38:40;;;;;;;20.47;9.30;;;3.30;95.10;;;;;;5093420;28;20277;-86
2021/01/26 02:41:27;;;;;;;21.93;8.80;;;3.20;95.00;;;;;;5092617;28;20541;-86
2021/01/26 02:44:29;;;;;;;18.00;8.80;;;3.30;95.00;;;;;;5093151;28;20095;-86
2021/01/26 02:47:21;;;;;;;19.80;8.53;;;3.30;95.10;;;;;;5092933;28;20024;-85
2021/01/26 02:50:10;;;;;;;18.60;8.90;;;3.30;94.90;;;;;;5082441;28;20079;-85
2021/01/26 02:52:57;;;;;;;19.70;8.45;;;3.30;94.80;;;;;;5092751;28;20081;-85
2021/01/26 02:55:47;;;;;;;20.90;8.17;;;3.30;94.80;;;;;;5092933;28;20571;-86
2021/01/26 02:58:27;;;;;;;19.90;7.73;;;3.30;94.70;;;;;;5092912;28;20520;-86
2021/01/26 03:00:58;;;;;;;;;;;3.30;94.70;;;;;;5092740;28;20173;-86
2021/01/26 03:03:51;;;;;;;15.73;7.10;;;3.30;94.70;;;;;;5093991;28;19915;-87
2021/01/26 03:06:27;;;;;;;21.67;7.57;;;3.30;94.60;;;;;;5092805;28;20020;-86
2021/01/26 03:09:00;;;;;;;19.37;6.60;;;3.30;94.60;;;;;;5098821;28;20489;-88
2021/01/26 03:11:26;;;;;;;17.70;6.80;;;3.30;94.60;;;;;;5098095;28;20438;-86
2021/01/26 03:14:01;;;;;;;21.20;6.77;;;3.40;94.90;;;;;;5099310;28;20115;-87
2021/01/26 03:16:29;;;;;;;20.73;6.17;;;3.30;94.60;;;;;;5099146;28;20034;-86
2021/01/26 03:19:18;;;;;;;21.53;7.53;;;3.40;94.70;;;;;;5100210;28;20026;-85
2021/01/26 03:21:48;;;;;;;18.53;7.20;;;3.30;94.80;;;;;;5099533;28;20032;-85
2021/01/26 03:24:23;;;;;;;15.87;7.00;;;3.30;94.90;;;;;;5101212;28;20054;-87
2021/01/26 03:26:50;;;;;;;18.70;5.87;;;3.20;95.00;;;;;;5100660;28;20028;-85
2021/01/26 03:29:20;;;;;;;16.57;6.83;;;3.20;95.10;;;;;;5099531;28;20053;-87
2021/01/26 03:31:53;;;;;;;19.20;7.27;;;3.20;95.40;;;;;;5100818;28;20039;-87
2021/01/26 03:34:19;;;;;;;18.87;6.97;;;3.20;95.30;;;;;;5099629;28;20480;-85
2021/01/26 03:36:45;;;;;;;19.43;7.03;;;3.10;95.20;;;;;;5100106;28;20025;-85
2021/01/26 03:39:11;;;;;;;12.20;6.30;;;3.10;95.50;;;;;;5097471;28;20024;-85
2021/01/26 03:41:37;;;;;;;19.50;7.00;;;3.20;95.50;;;;;;5097842;28;20024;-86
2021/01/26 03:44:04;;;;;;;18.93;6.27;;;3.20;95.50;;;;;;5099029;28;20131;-86
2021/01/26 03:46:53;;;;;;;19.53;6.50;;;3.20;95.40;;;;;;5098273;28;20063;-85
2021/01/26 03:49:47;;;;;;;18.30;6.38;;;3.20;95.40;;;;;;5098841;28;20032;-86
2021/01/26 03:52:40;;;;;;;16.07;6.00;;;3.20;95.20;;;;;;5097578;28;20030;-85
2021/01/26 03:55:27;;;;;;;18.17;6.83;;;3.20;95.30;;;;;;5097825;28;20081;-85
2021/01/26 03:58:05;;;;;;;17.50;6.23;;;3.20;95.20;;;;;;5097731;28;20393;-86
2021/01/26 04:00:36;;;;;;;15.23;5.97;;;3.20;95.30;;;;;;5097148;28;20111;-87
2021/01/26 04:03:10;;;;;;;17.27;5.87;;;3.20;95.10;;;;;;5097894;28;20095;-86
2021/01/26 04:05:49;;;;;;;14.87;5.60;;;3.20;95.50;;;;;;5097303;28;20054;-85
2021/01/26 04:08:22;;;;;;;11.67;5.27;;;3.20;95.00;;;;;;5096606;28;20024;-85
2021/01/26 04:11:00;;;;;;;16.53;5.63;;;3.20;95.10;;;;;;5097221;28;20012;-85
2021/01/26 04:13:32;;;;;;;15.17;5.63;;;3.20;95.00;;;;;;5097730;28;20028;-85
2021/01/26 04:16:02;;;;;;;14.30;5.20;;;3.20;94.80;;;;;;5097173;28;20024;-85
2021/01/26 04:18:39;;;;;;;12.68;4.78;;;3.20;95.10;;;;;;5097174;28;20031;-85
2021/01/26 04:21:05;;;;;;;10.43;4.60;;;3.10;94.90;;;;;;5096542;28;20024;-85
2021/01/26 04:23:31;;;;;;;11.47;5.10;;;3.20;95.00;;;;;;5097131;28;20031;-87
2021/01/26 04:26:09;;;;;;;10.83;4.90;;;3.20;95.00;;;;;;5097720;28;20024;-85
2021/01/26 04:28:41;;;;;;;14.73;5.70;;;3.10;94.70;;;;;;5097032;28;20031;-87
2021/01/26 04:31:10;;;;;;;13.60;5.53;;;3.20;94.90;;;;;;5096710;28;20024;-87
2021/01/26 04:33:36;;;;;;;10.55;4.90;;;3.10;94.70;;;;;;5096683;28;20035;-85
2021/01/26 04:36:03;;;;;;;13.37;4.93;;;3.10;94.80;;;;;;5097240;28;20032;-86
2021/01/26 04:38:29;;;;;;;12.77;5.00;;;3.20;94.70;;;;;;5098533;28;20082;-85
2021/01/26 04:41:05;;;;;;;10.77;4.80;;;3.10;94.60;;;;;;5096466;28;20096;-85
2021/01/26 04:43:53;;;;;;;9.80;4.43;;;3.10;94.70;;;;;;5097047;28;20042;-86
2021/01/26 04:46:32;;;;;;;13.50;4.60;;;3.20;94.50;;;;;;5096319;28;20028;-85
2021/01/26 04:49:23;;;;;;;17.38;4.32;;;3.20;94.30;;;;;;5095470;28;20057;-87
2021/01/26 04:52:01;;;;;;;16.03;4.20;;;3.20;94.20;;;;;;5097438;28;20028;-85
2021/01/26 04:55:00;;;;;;;9.93;4.17;;;3.20;94.20;;;;;;5097598;28;20050;-86
2021/01/26 04:57:49;;;;;;;11.07;4.07;;;3.20;94.00;;;;;;5042739;28;20032;-85
2021/01/26 05:00:33;;;;;;;;;;;3.20;94.10;;;;;;5098750;28;20016;-85
2021/01/26 05:03:07;;;;;;;10.40;3.40;;;3.20;94.00;;;;;;5097197;28;19914;-85
2021/01/26 05:05:38;;;;;;;17.60;3.90;;;3.20;94.10;;;;;;5098117;28;20039;-85
2021/01/26 05:08:14;;;;;;;11.10;3.87;;;3.20;94.10;;;;;;5098513;28;20052;-85
2021/01/26 05:10:50;;;;;;;14.43;3.80;;;3.20;94.10;;;;;;5098169;28;20062;-85
2021/01/26 05:13:31;;;;;;;12.53;4.10;;;3.30;94.20;;;;;;5098561;28;20503;-87
2021/01/26 05:16:18;;;;;;;11.43;4.37;;;3.30;94.10;;;;;;5098952;28;20073;-86
2021/01/26 05:18:48;;;;;;;10.13;3.60;;;3.30;94.20;;;;;;5099931;28;20024;-85
2021/01/26 05:21:26;;;;;;;12.40;3.58;;;3.30;94.10;;;;;;5100023;28;20028;-86
2021/01/26 05:23:58;;;;;;;15.37;3.77;;;3.30;94.10;;;;;;5100660;28;20066;-85
2021/01/26 05:26:24;;;;;;;14.17;4.20;;;3.30;94.10;;;;;;5101325;28;20266;-86
2021/01/26 05:28:50;;;;;;;11.97;4.13;;;3.30;94.20;;;;;;5094391;28;20119;-87
2021/01/26 05:31:28;;;;;;;12.30;4.07;;;3.30;94.20;;;;;;5095793;28;20024;-86
2021/01/26 05:37:29;;;;;;;13.87;4.20;;;3.30;94.10;;;;;;5074064;28;20495;-86
2021/01/26 05:40:47;;;;;;;10.93;3.80;;;3.30;93.90;;;;;;5055367;28;20127;-86
2021/01/26 05:43:30;;;;;;;14.18;4.70;;;3.30;93.90;;;;;;5053713;28;20036;-86
2021/01/26 05:46:49;;;;;;;16.70;6.43;;;3.30;94.10;;;;;;5041348;28;20037;-86
2021/01/26 05:49:53;;;;;;;23.80;9.13;;;3.40;94.10;;;;;;5016470;28;20082;-86
2021/01/26 05:52:21;;;;;;;16.60;4.20;;;3.40;94.00;;;;;;5087841;28;20020;-86
2021/01/26 05:54:52;;;;;;;14.17;4.40;;;3.50;94.10;;;;;;5095849;28;20744;-87
2021/01/26 05:57:36;;;;;;;13.03;4.20;;;3.40;94.20;;;;;;5095236;28;20032;-86
2021/01/26 06:00:24;;;;;;;16.33;4.93;;;3.50;94.00;;;;;;5093898;28;20074;-87
2021/01/26 06:03:11;;;;;;;47.10;6.03;;;3.50;94.10;;;;;;5094423;28;20397;-87
2021/01/26 06:05:40;;;;;;;16.80;4.73;;;3.50;94.20;;;;;;5094789;28;20027;-87
2021/01/26 06:08:10;;;;;;;15.55;4.93;;;3.50;94.20;;;;;;5094592;28;20484;-86
2021/01/26 06:10:39;;;;;;;19.73;5.63;;;3.50;94.10;;;;;;5094442;28;20043;-86
2021/01/26 06:13:05;;;;;;;16.25;5.43;;;3.50;94.10;;;;;;5095062;28;20028;-86
2021/01/26 06:15:37;;;;;;;13.27;4.80;;;3.50;94.30;;;;;;5095558;28;20027;-87
2021/01/26 06:18:35;;;;;;;14.80;4.30;;;3.50;94.40;;;;;;5094347;28;20023;-87
2021/01/26 06:21:12;;;;;;;13.45;4.80;;;3.50;94.10;;;;;;5091403;28;20035;-86
2021/01/26 06:24:41;;;;;;;15.60;4.17;;;3.50;94.10;;;;;;5095825;28;20480;-87
2021/01/26 06:27:07;;;;;;;11.07;4.40;;;3.50;93.90;;;;;;5043285;28;20051;-86
2021/01/26 06:29:53;;;;;;;16.83;4.50;;;3.50;94.00;;;;;;5089848;28;20091;-86
2021/01/26 06:32:37;;;;;;;15.00;4.47;;;3.60;93.90;;;;;;5102040;28;20020;-85
2021/01/26 06:35:19;;;;;;;17.47;4.27;;;3.60;93.90;;;;;;5101106;28;20028;-84
2021/01/26 06:37:53;;;;;;;13.60;4.00;;;3.60;93.80;;;;;;5101972;28;20031;-86
2021/01/26 06:40:38;;;;;;;20.07;4.97;;;3.60;93.90;;;;;;5100726;28;20031;-85
2021/01/26 06:43:25;;;;;;;15.13;4.57;;;3.60;93.80;;;;;;5094128;28;20028;-85
2021/01/26 06:46:22;;;;;;;20.70;4.63;;;3.60;93.80;;;;;;5097720;28;20017;-84
2021/01/26 06:49:19;;;;;;;12.90;4.40;;;3.60;93.90;;;;;;5096502;28;20039;-84
2021/01/26 06:52:07;;;;;;;22.87;7.30;;;3.60;93.80;;;;;;5096983;28;20028;-85
2021/01/26 06:54:41;;;;;;;14.87;4.50;;;3.60;93.70;;;;;;5099694;28;20023;-85
2021/01/26 06:58:00;;;;;;;13.43;3.80;;;3.60;93.70;;;;;;5097525;28;20070;-85
2021/01/26 07:00:50;;;;;;;12.73;4.53;;;3.60;93.70;;;;;;5016112;28;20026;-86
2021/01/26 07:03:38;;;;;;;16.33;5.00;;;3.60;93.90;;;;;;5093325;28;20020;-85
2021/01/26 07:06:13;;;;;;;16.20;4.63;;;3.50;94.00;;;;;;5052953;28;20020;-86
2021/01/26 07:08:41;;;;;;;14.33;4.43;;;3.50;94.10;;;;;;5105066;28;20020;-85
2021/01/26 07:11:27;;;;;;;15.93;4.93;;;3.50;94.20;;;;;;5102624;28;20024;-85
2021/01/26 07:14:03;;;;;;;12.53;4.93;;;3.40;94.30;;;;;;5102611;28;20052;-85
2021/01/26 07:16:47;;;;;;;10.67;4.53;;;3.40;94.40;;;;;;5103302;28;20020;-85
2021/01/26 07:19:41;;;;;;;11.03;4.80;;;3.30;94.60;;;;;;5105838;28;20508;-85
2021/01/26 07:22:18;;;;;;;14.23;5.53;;;3.30;94.90;;;;;;5101779;28;20024;-85
2021/01/26 07:25:10;;;;;;;11.90;5.20;;;3.40;94.90;;;;;;5099183;28;20039;-85
2021/01/26 07:27:51;;;;;;;16.33;5.80;;;3.30;94.90;;;;;;5096002;28;20070;-85
2021/01/26 07:30:25;;;;;;;12.20;5.47;;;3.30;94.90;;;;;;5096083;28;20028;-85
2021/01/26 07:32:56;;;;;;;12.70;5.20;;;3.30;95.10;;;;;;5094740;28;20122;-85
2021/01/26 07:35:43;;;;;;;13.17;5.67;;;3.30;95.30;;;;;;5100028;28;20024;-85
2021/01/26 07:38:47;;;;;;;14.87;6.30;;;3.30;95.40;;;;;;5095099;28;20031;-85
2021/01/26 07:41:46;;;;;;;14.87;6.57;;;3.30;95.20;;;;;;5076633;28;20032;-85
2021/01/26 07:44:29;;;;;;;18.40;6.30;;;3.30;95.30;;;;;;5086228;28;20127;-85
2021/01/26 07:47:07;;;;;;;18.30;6.97;;;3.30;95.30;;;;;;5094357;28;20028;-85
2021/01/26 07:49:44;;;;;;;15.80;6.47;;;3.40;95.30;;;;;;5093992;28;20028;-85
2021/01/26 07:52:10;;;;;;;23.00;8.30;;;3.40;95.20;;;;;;5093199;28;20028;-85
2021/01/26 07:54:42;;;;;;;19.47;7.03;;;3.40;95.20;;;;;;5092802;28;20056;-86
2021/01/26 07:57:09;;;;;;;21.53;7.20;;;3.40;95.20;;;;;;5092799;28;20028;-86
2021/01/26 07:59:40;;;;;;;15.47;7.63;;;3.40;95.60;;;;;;5091889;28;20141;-85
2021/01/26 08:02:17;;;;;;;22.73;8.70;;;3.40;95.30;;;;;;5094307;28;20043;-86
2021/01/26 08:04:43;;;;;;;25.67;8.70;;;3.40;95.30;;;;;;5102974;28;20030;-85
2021/01/26 08:07:23;;;;;;;20.43;7.97;;;3.40;95.60;;;;;;5101278;28;20028;-85
2021/01/26 08:09:50;;;;;;;;;;;3.40;95.60;;;;;;5100400;28;20028;-85
2021/01/26 08:12:19;;;;;;;41.00;13.33;;;3.30;95.50;;;;;;5100858;28;19990;-85
2021/01/26 08:14:46;;;;;;;35.30;10.85;;;3.40;95.60;;;;;;5100653;28;20024;-85
2021/01/26 08:17:31;;;;;;;25.40;10.27;;;3.40;95.90;;;;;;5103315;28;20027;-85
2021/01/26 08:20:05;;;;;;;25.10;9.63;;;3.40;95.80;;;;;;5102044;28;20101;-85
2021/01/26 08:22:39;;;;;;;30.70;10.63;;;3.40;95.80;;;;;;5101589;28;20024;-86
2021/01/26 08:25:05;;;;;;;30.37;11.10;;;3.40;95.80;;;;;;5101097;28;20024;-86
2021/01/26 08:27:53;;;;;;;29.33;10.77;;;3.40;95.80;;;;;;5104457;28;20050;-88
2021/01/26 08:30:50;;;;;;;25.37;9.53;;;3.40;95.90;;;;;;5102391;28;20028;-85
2021/01/26 08:33:19;;;;;;;36.17;10.57;;;3.40;95.90;;;;;;5101154;28;20161;-84
2021/01/26 08:35:45;;;;;;;22.60;8.63;;;3.40;96.20;;;;;;5099867;28;20047;-84
2021/01/26 08:38:49;;;;;;;28.73;8.20;;;3.40;96.20;;;;;;5104440;28;20027;-85
2021/01/26 08:41:37;;;;;;;23.47;8.10;;;3.40;96.10;;;;;;5094437;28;20049;-85
2021/01/26 08:44:05;;;;;;;26.43;7.90;;;3.40;96.20;;;;;;5091143;28;20051;-85
2021/01/26 08:46:36;;;;;;;17.63;8.10;;;3.40;96.20;;;;;;5092496;28;20066;-84
2021/01/26 08:49:16;;;;;;;18.60;7.40;;;3.40;96.20;;;;;;5094327;28;20035;-85
2021/01/26 08:51:42;;;;;;;22.47;7.40;;;3.50;96.20;;;;;;5093194;28;20020;-84
2021/01/26 08:54:08;;;;;;;18.37;7.60;;;3.50;96.20;;;;;;5091715;28;20024;-85
2021/01/26 08:56:36;;;;;;;16.97;7.00;;;3.50;96.20;;;;;;5092199;28;20027;-85
2021/01/26 08:59:06;;;;;;;21.03;6.93;;;3.50;96.10;;;;;;5091012;28;20020;-85
2021/01/26 09:01:34;;;;;;;;;;;3.50;96.20;;;;;;5091796;28;20056;-85
2021/01/26 09:04:12;;;;;;;18.57;6.60;;;3.50;96.30;;;;;;5096719;28;19898;-84
2021/01/26 09:09:08;;;;;;;18.70;7.00;;;3.60;96.10;;;;;;5052614;22;20049;-81
2021/01/26 09:11:48;;;;;;;14.47;6.80;;;3.50;95.90;;;;;;5032105;28;20087;-81
2021/01/26 09:14:28;;;;;;;16.90;6.35;;;3.60;96.10;;;;;;5032273;28;20033;-81
2021/01/26 09:17:12;;;;;;;17.33;6.47;;;3.60;96.00;;;;;;5034188;28;20056;-82
2021/01/26 09:19:47;;;;;;;15.20;7.40;;;3.60;96.00;;;;;;5033914;28;20040;-81
2021/01/26 09:22:18;;;;;;;17.53;6.27;;;3.60;96.00;;;;;;5052363;28;20062;-81
2021/01/26 09:24:45;;;;;;;11.67;5.80;;;3.60;96.00;;;;;;5034454;28;20122;-81
2021/01/26 09:27:23;;;;;;;15.37;6.77;;;3.60;95.90;;;;;;5052309;28;20025;-81
2021/01/26 09:30:17;;;;;;;16.60;7.33;;;3.50;96.10;;;;;;5051725;28;20029;-81
2021/01/26 09:32:58;;;;;;;16.90;7.77;;;3.50;96.10;;;;;;5052917;28;20021;-81
2021/01/26 09:35:28;;;;;;;18.90;7.87;;;3.50;96.20;;;;;;5035119;28;20021;-81
2021/01/26 09:38:16;;;;;;;18.30;7.30;;;3.60;96.30;;;;;;5052430;28;20017;-81
2021/01/26 09:40:45;;;;;;;15.97;6.93;;;3.60;96.20;;;;;;5034070;28;20025;-81
2021/01/26 09:43:21;;;;;;;16.55;7.50;;;3.60;96.30;;;;;;5052152;28;20448;-81
2021/01/26 09:46:03;;;;;;;17.13;7.80;;;3.60;96.10;;;;;;5052085;28;20043;-81
2021/01/26 09:48:31;;;;;;;12.60;6.80;;;3.60;96.00;;;;;;5051975;28;20025;-81
2021/01/26 09:51:12;;;;;;;19.67;7.80;;;3.60;96.10;;;;;;5051522;28;20017;-81
2021/01/26 09:53:39;;;;;;;22.90;8.50;;;3.70;96.10;;;;;;5052400;28;20460;-81
2021/01/26 09:56:06;;;;;;;15.50;7.73;;;3.70;96.20;;;;;;5034329;28;20420;-81
2021/01/26 09:58:32;;;;;;;22.47;8.50;;;3.70;95.80;;;;;;5034106;28;20033;-81
2021/01/26 10:01:00;;;;;;;15.97;7.97;;;3.70;95.70;;;;;;5051850;28;20025;-81
2021/01/26 10:03:27;;;;;;;16.50;8.27;;;3.70;95.80;;;;;;5037420;28;20021;-81
2021/01/26 10:05:54;;;;;;;20.00;8.13;;;3.80;95.80;;;;;;5055638;28;20108;-81
2021/01/26 10:08:20;;;;;;;20.20;8.20;;;3.80;96.00;;;;;;5055681;28;20473;-82
2021/01/26 10:10:46;;;;;;;15.53;7.80;;;3.80;95.70;;;;;;5056198;28;20051;-81
2021/01/26 10:13:23;;;;;;;18.67;8.07;;;3.80;95.70;;;;;;5038920;28;20431;-80
2021/01/26 10:15:49;;;;;;;14.53;7.00;;;3.90;95.70;;;;;;5057617;28;20487;-81
2021/01/26 10:18:17;;;;;;;12.90;7.43;;;3.90;95.40;;;;;;5039018;28;20033;-82
2021/01/26 10:20:46;;;;;;;13.63;7.27;;;3.90;95.50;;;;;;5057346;28;20047;-81
2021/01/26 10:23:25;;;;;;;20.03;8.00;;;3.90;95.60;;;;;;5057813;28;20029;-81
2021/01/26 10:25:53;;;;;;;21.47;7.87;;;3.90;95.50;;;;;;5056897;28;20466;-82
2021/01/26 10:28:27;;;;;;;13.67;7.50;;;3.90;95.40;;;;;;5056432;28;20075;-81
2021/01/26 10:30:55;;;;;;;22.47;8.00;;;3.90;95.50;;;;;;5037429;28;20056;-82
2021/01/26 10:33:35;;;;;;;15.13;7.80;;;3.90;95.50;;;;;;5057362;28;20041;-82
2021/01/26 10:36:19;;;;;;;24.13;8.50;;;3.90;95.60;;;;;;5056907;28;20021;-82
2021/01/26 10:38:46;;;;;;;18.60;8.33;;;3.90;95.70;;;;;;5037847;28;20506;-81
2021/01/26 10:41:20;;;;;;;25.93;8.33;;;3.90;95.60;;;;;;5037418;28;20032;-82
2021/01/26 10:43:47;;;;;;;21.17;8.93;;;4.00;95.70;;;;;;5037906;28;20025;-81
2021/01/26 10:46:26;;;;;;;16.33;8.27;;;4.00;95.70;;;;;;5038278;28;20477;-81
2021/01/26 10:48:51;;;;;;;21.38;8.20;;;4.00;95.50;;;;;;5055439;28;20069;-82
2021/01/26 10:51:27;;;;;;;18.43;8.17;;;4.00;95.60;;;;;;5056363;28;20433;-81
2021/01/26 10:53:54;;;;;;;19.13;8.93;;;4.00;95.50;;;;;;5038195;28;20025;-81
2021/01/26 10:56:19;;;;;;;37.93;13.87;;;4.00;95.60;;;;;;5056353;28;20017;-81
2021/01/26 10:58:47;;;;;;;39.10;13.37;;;4.00;95.50;;;;;;5056155;28;20025;-80
2021/01/26 11:01:18;;;;;;;34.37;11.70;;;3.90;95.80;;;;;;5056681;28;20025;-81
2021/01/26 11:03:43;;;;;;;20.70;10.43;;;4.00;96.00;;;;;;5056403;28;20032;-82
2021/01/26 11:06:09;;;;;;;24.03;10.23;;;4.00;96.10;;;;;;5056405;28;20025;-81
2021/01/26 11:08:35;;;;;;;27.60;10.87;;;4.00;95.90;;;;;;5056315;28;20045;-81
2021/01/26 11:11:01;;;;;;;20.40;9.27;;;4.00;95.90;;;;;;5038084;28;20557;-81
2021/01/26 11:13:28;;;;;;;26.80;9.90;;;4.10;96.00;;;;;;5038052;28;20021;-81
2021/01/26 11:15:53;;;;;;;22.53;8.17;;;4.10;96.00;;;;;;5038291;28;20473;-81
2021/01/26 11:18:19;;;;;;;24.30;9.30;;;4.10;95.70;;;;;;5039240;28;20023;-81
2021/01/26 11:20:45;;;;;;;22.87;8.53;;;4.10;95.60;;;;;;5056309;28;20530;-81
2021/01/26 11:23:11;;;;;;;25.53;9.00;;;4.10;95.60;;;;;;5056817;28;20017;-79
2021/01/26 11:25:37;;;;;;;22.13;9.30;;;4.10;95.60;;;;;;5054276;28;20032;-82
2021/01/26 11:28:04;;;;;;;25.07;9.63;;;4.20;95.70;;;;;;5037636;28;20025;-82
2021/01/26 11:30:31;;;;;;;18.00;8.13;;;4.20;95.70;;;;;;5054554;28;20021;-82
2021/01/26 11:32:57;;;;;;;18.67;7.53;;;4.20;95.60;;;;;;5054554;28;20450;-81
2021/01/26 11:35:25;;;;;;;15.87;7.27;;;4.20;95.60;;;;;;5055645;28;20025;-81
2021/01/26 11:37:52;;;;;;;21.83;7.40;;;4.20;95.40;;;;;;5055310;28;20052;-82
2021/01/26 11:40:18;;;;;;;13.00;6.67;;;4.20;95.50;;;;;;5054161;28;20032;-82
2021/01/26 11:42:43;;;;;;;22.07;6.57;;;4.30;95.30;;;;;;5054452;28;20420;-82
2021/01/26 11:45:14;;;;;;;11.83;6.40;;;4.30;95.20;;;;;;5055337;28;20436;-81
2021/01/26 11:47:40;;;;;;;11.27;6.20;;;4.30;95.00;;;;;;5055306;28;20366;-82
2021/01/26 11:50:12;;;;;;;14.20;6.20;;;4.30;95.00;;;;;;5054677;28;20021;-82
2021/01/26 11:52:38;;;;;;;25.73;7.00;;;4.30;95.20;;;;;;5038497;28;20027;-81
2021/01/26 11:55:07;;;;;;;14.57;7.27;;;4.40;95.30;;;;;;5055950;28;20021;-81
2021/01/26 11:57:33;;;;;;;13.03;6.23;;;4.40;95.30;;;;;;5037733;28;20021;-81
2021/01/26 11:59:59;;;;;;;15.63;5.90;;;4.40;94.80;;;;;;5036656;28;20021;-81
2021/01/26 12:02:27;;;;;;;15.07;6.10;;;4.40;94.90;;;;;;5037738;28;20596;-82
2021/01/26 12:04:53;;;;;;;11.97;5.77;;;4.40;94.90;;;;;;5055137;28;20453;-82
2021/01/26 12:07:18;;;;;;;12.63;5.77;;;4.40;95.00;;;;;;5054904;28;20063;-82
2021/01/26 12:09:44;;;;;;;16.67;7.10;;;4.40;95.00;;;;;;5053623;28;20500;-82
2021/01/26 12:12:09;;;;;;;16.30;7.40;;;4.50;94.90;;;;;;5054187;28;20512;-81
2021/01/26 12:14:35;;;;;;;13.83;6.53;;;4.50;94.40;;;;;;5054497;28;20028;-82
2021/01/26 12:17:01;;;;;;;18.77;6.80;;;4.50;94.50;;;;;;5053620;28;20017;-80
2021/01/26 12:19:28;;;;;;;15.93;7.30;;;4.50;94.70;;;;;;5053606;28;20539;-82
2021/01/26 12:21:55;;;;;;;15.73;6.93;;;4.50;94.60;;;;;;5055088;28;20071;-82
2021/01/26 12:24:20;;;;;;;14.63;6.87;;;4.50;94.60;;;;;;5054939;28;20017;-81
2021/01/26 12:26:46;;;;;;;13.30;7.17;;;4.50;94.70;;;;;;5055170;28;20025;-81
2021/01/26 12:29:11;;;;;;;15.77;7.47;;;4.50;94.60;;;;;;5036388;28;20560;-82
2021/01/26 12:31:37;;;;;;;13.27;7.10;;;4.60;94.70;;;;;;5036991;28;20078;-81
2021/01/26 12:34:03;;;;;;;15.97;7.43;;;4.60;94.40;;;;;;5037632;28;20025;-82
2021/01/26 12:36:28;;;;;;;13.53;7.00;;;4.60;94.50;;;;;;5055459;28;20098;-81
2021/01/26 12:38:54;;;;;;;17.90;8.30;;;4.60;94.10;;;;;;5055138;28;20029;-82
2021/01/26 12:41:20;;;;;;;15.43;7.07;;;4.60;94.30;;;;;;5055925;28;20103;-82
2021/01/26 12:43:46;;;;;;;19.63;7.70;;;4.60;94.20;;;;;;5056222;28;20079;-81
2021/01/26 12:46:12;;;;;;;14.87;7.17;;;4.60;94.00;;;;;;5056308;28;20025;-82
2021/01/26 12:48:38;;;;;;;14.87;7.00;;;4.60;94.10;;;;;;5056802;28;20385;-81
2021/01/26 12:51:03;;;;;;;14.33;7.80;;;4.70;93.80;;;;;;5056071;28;20358;-81
2021/01/26 12:53:29;;;;;;;14.93;6.93;;;4.70;94.20;;;;;;5056601;28;20059;-81
2021/01/26 12:55:55;;;;;;;15.57;7.40;;;4.70;93.50;;;;;;5057360;28;20021;-81
2021/01/26 12:58:20;;;;;;;19.87;7.90;;;4.70;93.60;;;;;;5057454;28;20396;-82
2021/01/26 13:00:47;;;;;;;17.93;7.60;;;4.80;93.50;;;;;;5057249;28;20078;-82
2021/01/26 13:03:12;;;;;;;16.70;8.53;;;4.70;93.40;;;;;;5057734;28;20108;-82
2021/01/26 13:05:38;;;;;;;16.40;7.70;;;4.70;93.50;;;;;;5040306;28;20059;-82
2021/01/26 13:08:04;;;;;;;13.80;7.40;;;4.70;93.80;;;;;;5057839;28;20045;-81
2021/01/26 13:10:31;;;;;;;21.40;8.00;;;4.80;93.40;;;;;;5053454;28;20055;-81
2021/01/26 13:12:58;;;;;;;24.43;9.43;;;4.80;93.20;;;;;;5054177;28;20029;-81
2021/01/26 13:15:24;;;;;;;23.13;8.90;;;4.80;93.20;;;;;;5036419;28;20029;-81
2021/01/26 13:17:52;;;;;;;20.93;8.10;;;4.80;93.30;;;;;;5056854;28;20029;-79
2021/01/26 13:20:18;;;;;;;24.27;8.20;;;4.90;93.40;;;;;;5061559;28;20025;-80
2021/01/26 13:22:44;;;;;;;17.77;6.57;;;4.90;92.30;;;;;;5066296;28;20081;-82
2021/01/26 13:25:15;;;;;;;13.60;5.47;;;4.90;91.70;;;;;;5056084;28;20045;-82